Time;durP1;ratioP1;P1;durP2;ratioP2;P2;SDS_P1;SDS_P2;PMS_P1;PMS_P2;Temp;Humidity;BMP_temperature;BMP_pressure;BME280_temperature;BME280_humidity;BME280_pressure;Samples;Min_cycle;Max_cycle;Signal;HPM_P1;HPM_P2
2021/01/08 00:02:23;;;;;;;6.40;3.15;;;2.70;99.90;;;;;;5125089;28;20028;-78
2021/01/08 00:04:49;;;;;;;8.57;3.38;;;2.70;99.90;;;;;;5091180;28;20977;-78
2021/01/08 00:07:15;;;;;;;4.60;2.25;;;2.70;99.90;;;;;;5091108;28;20039;-77
2021/01/08 00:09:40;;;;;;;5.18;2.90;;;2.80;99.90;;;;;;5091019;28;20028;-79
2021/01/08 00:12:07;;;;;;;7.32;3.70;;;2.70;99.90;;;;;;5091486;28;20020;-78
2021/01/08 00:14:33;;;;;;;10.75;3.45;;;2.80;99.90;;;;;;5109183;28;20054;-78
2021/01/08 00:16:59;;;;;;;8.18;3.63;;;2.80;99.90;;;;;;5109351;28;20024;-79
2021/01/08 00:19:25;;;;;;;7.05;2.67;;;2.80;99.90;;;;;;5091038;28;20069;-77
2021/01/08 00:21:50;;;;;;;6.97;2.95;;;2.80;99.90;;;;;;5090854;28;20027;-77
2021/01/08 00:24:16;;;;;;;5.45;2.88;;;2.80;99.90;;;;;;5109001;28;20064;-77
2021/01/08 00:26:42;;;;;;;8.32;3.20;;;2.70;99.90;;;;;;5124967;28;20024;-79
2021/01/08 00:29:09;;;;;;;4.30;2.47;;;2.70;99.90;;;;;;5090762;28;20031;-79
2021/01/08 00:31:43;;;;;;;8.35;3.92;;;2.70;99.90;;;;;;5090796;28;20067;-80
2021/01/08 00:34:10;;;;;;;6.40;3.25;;;2.60;99.90;;;;;;5090890;28;20091;-77
2021/01/08 00:36:36;;;;;;;5.88;2.72;;;2.70;99.90;;;;;;5108804;28;20028;-78
2021/01/08 00:39:04;;;;;;;6.50;3.50;;;2.70;99.90;;;;;;5090919;28;20028;-79
2021/01/08 00:41:33;;;;;;;6.93;2.72;;;2.70;99.90;;;;;;5109041;28;20031;-79
2021/01/08 00:44:03;;;;;;;6.20;2.53;;;2.70;99.90;;;;;;5087198;28;20052;-77
2021/01/08 00:46:39;;;;;;;3.80;2.22;;;2.70;99.90;;;;;;5088676;28;20028;-78
2021/01/08 00:49:08;;;;;;;6.05;2.90;;;2.70;99.90;;;;;;5086844;28;20027;-78
2021/01/08 00:51:35;;;;;;;5.13;2.20;;;2.70;99.90;;;;;;5086970;28;20043;-80
2021/01/08 00:54:01;;;;;;;3.28;1.63;;;2.70;99.90;;;;;;5088163;28;20082;-78
2021/01/08 00:56:27;;;;;;;4.25;2.40;;;2.70;99.90;;;;;;5087773;28;20035;-78
2021/01/08 00:58:53;;;;;;;6.82;2.30;;;2.70;99.90;;;;;;5087582;28;20032;-77
2021/01/08 01:01:19;;;;;;;9.65;2.08;;;2.70;99.90;;;;;;5087887;28;20467;-77
2021/01/08 01:03:45;;;;;;;7.28;2.60;;;2.70;99.90;;;;;;5088582;28;20166;-77
2021/01/08 01:06:11;;;;;;;3.95;1.63;;;2.70;99.90;;;;;;5088568;28;20017;-77
2021/01/08 01:08:37;;;;;;;3.15;2.05;;;2.70;99.90;;;;;;5088631;28;20483;-77
2021/01/08 01:11:03;;;;;;;4.45;1.73;;;2.70;99.90;;;;;;5086129;28;20035;-78
2021/01/08 01:13:30;;;;;;;5.45;2.20;;;2.70;99.90;;;;;;5088418;28;20033;-77
2021/01/08 01:15:56;;;;;;;4.72;2.00;;;2.70;99.90;;;;;;5087213;28;20046;-78
2021/01/08 01:18:22;;;;;;;4.03;2.45;;;2.70;99.90;;;;;;5088069;28;20028;-76
2021/01/08 01:20:48;;;;;;;4.15;2.28;;;2.70;99.90;;;;;;5086944;28;20078;-78
2021/01/08 01:23:14;;;;;;;2.80;1.67;;;2.60;99.90;;;;;;5087933;28;20040;-76
2021/01/08 01:25:40;;;;;;;5.88;2.58;;;2.60;99.90;;;;;;5087495;28;20020;-78
2021/01/08 01:28:05;;;;;;;3.85;2.03;;;2.60;99.90;;;;;;5087908;28;20082;-78
2021/01/08 01:30:32;;;;;;;2.13;1.27;;;2.60;99.90;;;;;;5088114;28;20058;-79
2021/01/08 01:32:58;;;;;;;4.60;2.03;;;2.60;99.90;;;;;;5087661;28;20025;-78
2021/01/08 01:35:25;;;;;;;5.15;1.90;;;2.60;99.90;;;;;;5086701;28;20029;-76
2021/01/08 01:37:52;;;;;;;2.80;1.48;;;2.60;99.90;;;;;;5086459;28;20039;-79
2021/01/08 01:40:19;;;;;;;7.72;2.28;;;2.60;99.90;;;;;;5087434;28;20028;-78
2021/01/08 01:42:44;;;;;;;5.07;2.22;;;2.50;99.90;;;;;;5086115;28;20044;-77
2021/01/08 01:45:10;;;;;;;3.22;1.58;;;2.50;99.90;;;;;;5087653;28;20119;-77
2021/01/08 01:47:37;;;;;;;3.13;1.60;;;2.60;99.90;;;;;;5085823;28;20024;-79
2021/01/08 01:50:03;;;;;;;4.72;1.98;;;2.50;99.90;;;;;;5086204;28;20028;-79
2021/01/08 01:52:29;;;;;;;4.55;1.38;;;2.60;99.90;;;;;;5087664;28;20052;-77
2021/01/08 01:54:56;;;;;;;3.55;1.88;;;2.60;99.90;;;;;;5085819;28;20035;-76
2021/01/08 01:57:22;;;;;;;4.70;2.10;;;2.70;99.90;;;;;;5086081;28;20024;-77
2021/01/08 01:59:47;;;;;;;4.75;1.88;;;2.60;99.90;;;;;;5085998;28;20092;-78
2021/01/08 02:02:21;;;;;;;3.28;1.75;;;2.50;99.90;;;;;;5086869;28;20036;-79
2021/01/08 02:04:47;;;;;;;3.28;1.90;;;2.50;99.90;;;;;;5087032;28;20058;-79
2021/01/08 02:07:14;;;;;;;3.25;1.67;;;2.50;99.90;;;;;;5085815;28;20032;-79
2021/01/08 02:09:40;;;;;;;4.57;1.98;;;2.50;99.90;;;;;;5085589;28;20021;-77
2021/01/08 02:12:06;;;;;;;3.42;1.58;;;2.50;99.90;;;;;;5085908;28;20088;-79
2021/01/08 02:14:34;;;;;;;4.28;2.10;;;2.50;99.90;;;;;;5085609;28;20028;-78
2021/01/08 02:17:00;;;;;;;4.90;1.80;;;2.50;99.90;;;;;;5086686;28;20491;-78
2021/01/08 02:19:38;;;;;;;3.85;1.85;;;2.50;99.90;;;;;;5085706;28;20473;-78
2021/01/08 02:22:12;;;;;;;3.35;1.48;;;2.50;99.90;;;;;;5085355;28;20030;-77
2021/01/08 02:24:39;;;;;;;;;;;2.50;99.90;;;;;;5086216;28;20043;-76
2021/01/08 02:27:05;;;;;;;2.60;1.92;;;2.60;99.90;;;;;;5087026;28;19904;-78
2021/01/08 02:29:31;;;;;;;2.45;1.42;;;2.60;99.90;;;;;;5086604;28;20024;-78
2021/01/08 02:31:57;;;;;;;3.90;1.85;;;2.60;99.90;;;;;;5085057;28;20044;-79
2021/01/08 02:34:23;;;;;;;3.40;1.75;;;2.60;99.90;;;;;;5086561;28;20092;-76
2021/01/08 02:36:50;;;;;;;4.20;2.13;;;2.50;99.90;;;;;;5084886;28;20035;-78
2021/01/08 02:39:16;;;;;;;2.03;1.40;;;2.60;99.90;;;;;;5086273;28;20062;-78
2021/01/08 02:41:45;;;;;;;4.60;1.80;;;2.50;99.90;;;;;;5085386;28;20052;-77
2021/01/08 02:44:14;;;;;;;2.88;1.70;;;2.50;99.90;;;;;;5084436;28;20044;-78
2021/01/08 02:46:42;;;;;;;2.80;1.55;;;2.50;99.90;;;;;;5086378;28;20063;-78
2021/01/08 02:49:07;;;;;;;2.83;1.88;;;2.50;99.90;;;;;;5084999;28;20025;-77
2021/01/08 02:51:33;;;;;;;3.78;1.83;;;2.50;99.90;;;;;;5085722;28;20070;-79
2021/01/08 02:53:59;;;;;;;5.03;1.85;;;2.50;99.90;;;;;;5086176;28;20499;-77
2021/01/08 02:56:32;;;;;;;3.53;1.67;;;2.50;99.90;;;;;;5086238;28;20080;-78
2021/01/08 02:59:00;;;;;;;3.35;2.15;;;2.50;99.90;;;;;;5086027;28;20021;-77
2021/01/08 03:01:27;;;;;;;3.40;1.40;;;2.50;99.90;;;;;;5084947;28;20059;-78
2021/01/08 03:03:55;;;;;;;2.45;1.48;;;2.40;99.90;;;;;;5085881;28;20036;-78
2021/01/08 03:06:20;;;;;;;3.88;1.92;;;2.50;99.90;;;;;;5084232;28;20031;-77
2021/01/08 03:08:47;;;;;;;4.60;2.20;;;2.40;99.90;;;;;;5085814;28;20465;-79
2021/01/08 03:11:13;;;;;;;4.72;2.15;;;2.50;99.90;;;;;;5085717;28;20104;-77
2021/01/08 03:13:39;;;;;;;3.67;2.30;;;2.50;99.90;;;;;;5085741;28;20026;-77
2021/01/08 03:16:06;;;;;;;4.30;1.73;;;2.50;99.90;;;;;;5084708;28;20536;-78
2021/01/08 03:18:31;;;;;;;4.50;2.13;;;2.50;99.90;;;;;;5084419;28;20028;-77
2021/01/08 03:20:57;;;;;;;5.43;3.10;;;2.50;99.90;;;;;;5084377;28;20119;-78
2021/01/08 03:23:22;;;;;;;3.40;1.98;;;2.50;99.90;;;;;;5084206;28;20033;-79
2021/01/08 03:25:48;;;;;;;3.10;1.42;;;2.50;99.90;;;;;;5084128;28;20036;-78
2021/01/08 03:28:13;;;;;;;4.38;2.47;;;2.50;99.90;;;;;;5084190;28;20033;-77
2021/01/08 03:30:39;;;;;;;4.07;1.83;;;2.50;99.90;;;;;;5084333;28;20042;-77
2021/01/08 03:33:05;;;;;;;3.83;1.95;;;2.40;99.90;;;;;;5083745;28;20035;-78
2021/01/08 03:35:30;;;;;;;2.53;1.73;;;2.40;99.90;;;;;;5085384;28;20098;-78
2021/01/08 03:37:56;;;;;;;3.70;1.48;;;2.40;99.90;;;;;;5086063;28;20032;-79
2021/01/08 03:40:21;;;;;;;3.92;1.35;;;2.40;99.90;;;;;;5085234;28;20028;-78
2021/01/08 03:42:47;;;;;;;3.35;1.73;;;2.40;99.90;;;;;;5089353;28;20047;-78
2021/01/08 03:45:13;;;;;;;4.15;2.10;;;2.40;99.90;;;;;;5087606;28;20068;-78
2021/01/08 03:47:39;;;;;;;4.88;2.00;;;2.30;99.90;;;;;;5087013;28;20039;-78
2021/01/08 03:50:05;;;;;;;3.60;2.03;;;2.30;99.90;;;;;;5087553;28;20028;-79
2021/01/08 03:52:30;;;;;;;4.07;1.98;;;2.30;99.90;;;;;;5105778;28;20035;-78
2021/01/08 03:54:56;;;;;;;2.53;1.50;;;2.30;99.90;;;;;;5086926;28;20032;-78
2021/01/08 03:57:21;;;;;;;3.88;1.52;;;2.30;99.90;;;;;;5087523;28;20103;-77
2021/01/08 03:59:47;;;;;;;5.28;1.90;;;2.30;99.90;;;;;;5087366;28;20039;-77
2021/01/08 04:02:13;;;;;;;2.70;1.45;;;2.30;99.90;;;;;;5086797;28;20020;-78
2021/01/08 04:04:39;;;;;;;2.53;1.73;;;2.30;99.90;;;;;;5087075;28;20040;-78
2021/01/08 04:07:04;;;;;;;4.53;1.85;;;2.30;99.90;;;;;;5087265;28;20387;-77
2021/01/08 04:09:31;;;;;;;4.65;2.22;;;2.20;99.90;;;;;;5105297;28;20110;-78
2021/01/08 04:11:56;;;;;;;4.50;2.22;;;2.20;99.90;;;;;;5088158;28;20024;-79
2021/01/08 04:14:22;;;;;;;4.55;1.85;;;2.20;99.90;;;;;;5087256;28;20024;-78
2021/01/08 04:16:47;;;;;;;2.60;1.70;;;2.20;99.90;;;;;;5109430;28;20392;-77
2021/01/08 04:19:13;;;;;;;3.00;1.67;;;2.20;99.90;;;;;;5105407;28;20025;-78
2021/01/08 04:21:39;;;;;;;3.67;1.75;;;2.20;99.90;;;;;;5120618;28;20081;-79
2021/01/08 04:24:05;;;;;;;5.38;2.50;;;2.20;99.90;;;;;;5105097;28;20051;-78
2021/01/08 04:26:31;;;;;;;2.55;1.83;;;2.20;99.90;;;;;;5087140;28;20028;-80
2021/01/08 04:28:57;;;;;;;3.95;2.20;;;2.20;99.90;;;;;;5087172;28;20030;-78
2021/01/08 04:31:23;;;;;;;5.20;1.95;;;2.20;99.90;;;;;;5105159;28;20057;-79
2021/01/08 04:33:49;;;;;;;7.00;3.03;;;2.20;99.90;;;;;;5087120;28;20039;-80
2021/01/08 04:36:15;;;;;;;3.05;2.05;;;2.20;99.90;;;;;;5086621;28;20152;-80
2021/01/08 04:38:40;;;;;;;3.28;2.17;;;2.10;99.90;;;;;;5104938;28;20093;-80
2021/01/08 04:41:08;;;;;;;5.95;2.25;;;2.10;99.90;;;;;;5086938;28;20024;-79
2021/01/08 04:43:37;;;;;;;6.47;2.70;;;2.10;99.90;;;;;;5086485;28;20087;-80
2021/01/08 04:46:26;;;;;;;7.90;2.13;;;2.10;99.90;;;;;;5087086;28;20032;-79
2021/01/08 04:49:06;;;;;;;1.75;1.58;;;2.10;99.90;;;;;;5108805;28;20035;-79
2021/01/08 04:51:37;;;;;;;6.07;2.65;;;2.10;99.90;;;;;;5090286;28;20036;-79
2021/01/08 04:54:06;;;;;;;3.92;2.00;;;2.10;99.90;;;;;;5108875;28;20032;-79
2021/01/08 04:56:41;;;;;;;3.75;2.10;;;2.00;99.90;;;;;;5090595;28;20039;-77
2021/01/08 04:59:07;;;;;;;6.65;2.95;;;2.10;99.90;;;;;;5108729;28;20024;-78
2021/01/08 05:01:34;;;;;;;3.17;1.63;;;2.10;99.90;;;;;;5108582;28;20031;-77
2021/01/08 05:04:00;;;;;;;5.25;1.90;;;2.00;99.90;;;;;;5108323;28;20056;-80
2021/01/08 05:06:26;;;;;;;5.53;3.03;;;2.00;99.90;;;;;;5090067;28;20039;-79
2021/01/08 05:08:52;;;;;;;5.50;2.70;;;2.00;99.90;;;;;;5090377;28;20028;-80
2021/01/08 05:11:30;;;;;;;3.13;1.70;;;2.00;99.90;;;;;;5090000;28;20031;-78
2021/01/08 05:14:04;;;;;;;7.97;2.58;;;2.00;99.90;;;;;;5089883;28;20403;-80
2021/01/08 05:16:32;;;;;;;5.28;2.17;;;2.00;99.90;;;;;;5090115;28;20032;-80
2021/01/08 05:19:03;;;;;;;6.45;2.58;;;2.00;99.90;;;;;;5089934;28;20028;-79
2021/01/08 05:21:32;;;;;;;7.15;2.25;;;2.00;99.90;;;;;;5090137;28;20483;-80
2021/01/08 05:24:02;;;;;;;4.05;1.90;;;2.00;99.90;;;;;;5108365;28;20036;-79
2021/01/08 05:26:29;;;;;;;4.05;2.45;;;2.00;99.90;;;;;;5089935;28;20092;-79
2021/01/08 05:28:59;;;;;;;6.00;2.83;;;2.00;99.90;;;;;;5089802;28;20126;-80
2021/01/08 05:31:27;;;;;;;4.30;2.22;;;1.90;99.90;;;;;;5090086;28;20024;-79
2021/01/08 05:33:53;;;;;;;6.45;2.72;;;1.90;99.90;;;;;;5089304;28;20027;-79
2021/01/08 05:36:21;;;;;;;6.07;2.72;;;1.90;99.90;;;;;;5108198;28;20035;-78
2021/01/08 05:38:55;;;;;;;3.72;2.22;;;2.00;99.90;;;;;;5089690;28;20031;-79
2021/01/08 05:41:26;;;;;;;4.35;2.28;;;2.00;99.90;;;;;;5107927;28;20020;-77
2021/01/08 05:43:51;;;;;;;7.97;2.33;;;2.00;99.90;;;;;;5107694;28;20052;-79
2021/01/08 05:46:24;;;;;;;5.15;2.45;;;1.90;99.90;;;;;;5107505;28;20048;-78
2021/01/08 05:48:52;;;;;;;4.20;2.20;;;1.90;99.90;;;;;;5089588;28;20403;-79
2021/01/08 05:51:20;;;;;;;6.00;2.35;;;1.90;99.90;;;;;;5089337;28;20027;-78
2021/01/08 05:53:48;;;;;;;3.92;2.00;;;1.90;99.90;;;;;;5089075;28;20114;-78
2021/01/08 05:56:21;;;;;;;7.65;3.30;;;1.90;99.90;;;;;;5089200;28;20039;-80
2021/01/08 05:58:48;;;;;;;6.10;3.13;;;1.90;99.90;;;;;;5089343;28;20028;-79
2021/01/08 06:01:14;;;;;;;3.80;2.05;;;1.90;99.90;;;;;;5089022;28;20373;-78
2021/01/08 06:03:43;;;;;;;6.85;3.58;;;1.80;99.90;;;;;;5107015;28;20036;-78
2021/01/08 06:06:09;;;;;;;4.15;2.55;;;1.80;99.90;;;;;;5089013;28;20091;-80
2021/01/08 06:08:43;;;;;;;5.78;2.58;;;1.90;99.90;;;;;;5088849;28;20491;-78
2021/01/08 06:11:17;;;;;;;4.93;2.47;;;1.90;99.90;;;;;;5089352;28;20024;-78
2021/01/08 06:13:44;;;;;;;6.75;3.50;;;1.90;99.90;;;;;;5089039;28;20095;-78
2021/01/08 06:16:17;;;;;;;5.75;2.85;;;1.80;99.90;;;;;;5107195;28;20024;-77
2021/01/08 06:18:45;;;;;;;3.28;2.03;;;1.80;99.90;;;;;;5107280;28;20376;-77
2021/01/08 06:21:10;;;;;;;6.35;2.45;;;1.90;99.90;;;;;;5106628;28;20030;-77
2021/01/08 06:23:39;;;;;;;8.32;3.33;;;1.90;99.90;;;;;;5106823;28;20059;-77
2021/01/08 06:26:08;;;;;;;6.63;3.15;;;1.90;99.90;;;;;;5088838;28;20403;-78
2021/01/08 06:28:38;;;;;;;8.07;3.60;;;1.90;99.90;;;;;;5106642;28;20024;-77
2021/01/08 06:31:07;;;;;;;6.45;3.00;;;1.90;99.90;;;;;;5088805;28;20036;-78
2021/01/08 06:33:36;;;;;;;7.22;3.33;;;1.90;99.90;;;;;;5106875;28;20040;-78
2021/01/08 06:36:18;;;;;;;7.68;3.40;;;1.90;99.90;;;;;;5106537;28;20024;-77
2021/01/08 06:38:52;;;;;;;10.63;3.47;;;1.90;99.90;;;;;;5088572;28;20056;-78
2021/01/08 06:41:18;;;;;;;5.30;2.30;;;1.90;99.90;;;;;;5106861;28;20095;-78
2021/01/08 06:43:52;;;;;;;6.75;3.55;;;1.80;99.90;;;;;;5106011;28;20408;-78
2021/01/08 06:46:42;;;;;;;7.57;3.65;;;1.80;99.90;;;;;;5106745;28;20025;-78
2021/01/08 06:49:10;;;;;;;7.88;3.95;;;1.80;99.90;;;;;;5088026;28;20024;-78
2021/01/08 06:51:37;;;;;;;9.77;3.00;;;1.70;99.90;;;;;;5088282;28;20460;-78
2021/01/08 06:54:10;;;;;;;4.35;2.33;;;1.70;99.90;;;;;;5088277;28;20035;-78
2021/01/08 06:56:41;;;;;;;5.47;2.58;;;1.60;99.90;;;;;;5106327;28;20369;-78
2021/01/08 06:59:16;;;;;;;8.05;3.25;;;1.60;99.90;;;;;;5106491;28;20020;-78
2021/01/08 07:01:55;;;;;;;7.53;3.42;;;1.60;99.90;;;;;;5087779;28;20024;-79
2021/01/08 07:04:42;;;;;;;9.02;3.90;;;1.70;99.90;;;;;;5087273;28;20070;-79
2021/01/08 07:07:21;;;;;;;6.88;3.30;;;1.70;99.90;;;;;;5087663;28;20027;-79
2021/01/08 07:09:48;;;;;;;6.45;2.78;;;1.70;99.90;;;;;;5105091;28;20537;-78
2021/01/08 07:12:13;;;;;;;8.65;3.90;;;1.70;99.90;;;;;;5087555;28;20031;-79
2021/01/08 07:14:39;;;;;;;6.70;2.58;;;1.70;99.90;;;;;;5087503;28;20024;-79
2021/01/08 07:17:09;;;;;;;9.18;3.50;;;1.70;99.90;;;;;;5105336;28;20057;-79
2021/01/08 07:19:39;;;;;;;9.23;3.97;;;1.70;99.90;;;;;;5087401;28;20024;-79
2021/01/08 07:22:05;;;;;;;6.95;3.30;;;1.70;99.90;;;;;;5105514;28;20032;-79
2021/01/08 07:24:32;;;;;;;9.65;3.67;;;1.70;99.90;;;;;;5087411;28;20039;-79
2021/01/08 07:27:18;;;;;;;12.00;4.05;;;1.70;99.90;;;;;;5088497;28;20027;-79
2021/01/08 07:30:02;;;;;;;10.20;4.22;;;1.70;99.90;;;;;;5106276;28;20024;-78
2021/01/08 07:32:48;;;;;;;10.25;4.43;;;1.70;99.90;;;;;;5087931;28;20024;-79
2021/01/08 07:35:14;;;;;;;8.90;3.83;;;1.70;99.90;;;;;;5105645;28;20028;-79
2021/01/08 07:38:06;;;;;;;6.85;3.45;;;1.70;99.90;;;;;;5105484;28;20026;-79
2021/01/08 07:40:47;;;;;;;9.65;3.95;;;1.70;99.90;;;;;;5105836;28;20088;-80
2021/01/08 07:43:13;;;;;;;11.75;4.25;;;1.70;99.90;;;;;;5105035;28;20084;-79
2021/01/08 07:45:50;;;;;;;8.38;4.18;;;1.70;99.90;;;;;;5086778;28;20379;-80
2021/01/08 07:48:20;;;;;;;10.52;5.10;;;1.70;99.90;;;;;;5104878;28;20024;-80
2021/01/08 07:50:53;;;;;;;8.93;3.78;;;1.80;99.90;;;;;;5104904;28;20028;-80
2021/01/08 07:53:37;;;;;;;13.77;3.33;;;1.80;99.90;;;;;;5086334;28;20028;-80
2021/01/08 07:56:04;;;;;;;9.95;4.00;;;1.70;99.90;;;;;;5086710;28;20035;-80
2021/01/08 07:58:31;;;;;;;6.15;3.40;;;1.80;99.90;;;;;;5086959;28;20460;-81
2021/01/08 08:00:59;;;;;;;13.90;5.50;;;1.80;99.90;;;;;;5086792;28;20039;-80
2021/01/08 08:03:24;;;;;;;7.78;4.25;;;1.80;99.90;;;;;;5104816;28;20058;-81
2021/01/08 08:05:52;;;;;;;14.40;5.18;;;1.90;99.90;;;;;;5086561;28;20031;-80
2021/01/08 08:08:18;;;;;;;9.30;3.58;;;1.90;99.90;;;;;;5086757;28;20024;-81
2021/01/08 08:10:43;;;;;;;12.35;4.50;;;1.90;99.90;;;;;;5087250;28;20119;-81
2021/01/08 08:13:12;;;;;;;11.88;4.60;;;1.90;99.90;;;;;;5104898;28;20105;-80
2021/01/08 08:15:46;;;;;;;11.32;5.47;;;1.90;99.90;;;;;;5104051;28;20021;-81
2021/01/08 08:18:12;;;;;;;9.15;4.43;;;2.00;99.90;;;;;;5086574;28;20051;-81
2021/01/08 08:20:38;;;;;;;10.23;4.53;;;2.00;99.90;;;;;;5106186;28;20043;-81
2021/01/08 08:23:17;;;;;;;10.05;4.95;;;2.00;99.90;;;;;;5090643;28;20489;-81
2021/01/08 08:25:43;;;;;;;10.60;5.68;;;2.00;99.90;;;;;;5090827;28;20057;-81
2021/01/08 08:28:09;;;;;;;15.70;6.68;;;2.00;99.90;;;;;;5108180;28;20391;-80
2021/01/08 08:30:35;;;;;;;9.30;4.78;;;2.00;99.90;;;;;;5089656;28;20095;-80
2021/01/08 08:33:04;;;;;;;7.90;4.22;;;2.00;99.90;;;;;;5090671;28;20027;-81
2021/01/08 08:35:33;;;;;;;9.48;3.92;;;2.10;99.90;;;;;;5090691;28;20073;-83
2021/01/08 08:37:59;;;;;;;20.17;4.20;;;2.10;99.90;;;;;;5090476;28;20028;-81
2021/01/08 08:40:29;;;;;;;14.05;4.80;;;2.10;99.90;;;;;;5090123;28;20031;-82
2021/01/08 08:42:59;;;;;;;12.27;4.70;;;2.10;99.90;;;;;;5089579;28;20051;-82
2021/01/08 08:45:33;;;;;;;13.57;4.03;;;2.10;99.90;;;;;;5090088;28;20050;-82
2021/01/08 08:48:06;;;;;;;19.42;6.05;;;2.10;99.90;;;;;;5108772;28;20020;-81
2021/01/08 08:50:33;;;;;;;12.57;4.75;;;2.10;99.90;;;;;;5107862;28;20028;-82
2021/01/08 08:53:10;;;;;;;11.43;4.97;;;2.10;99.90;;;;;;5108494;28;20020;-81
2021/01/08 08:55:35;;;;;;;10.50;3.55;;;2.20;99.90;;;;;;5090116;28;20025;-82
2021/01/08 08:58:07;;;;;;;9.07;3.92;;;2.20;99.90;;;;;;5089970;28;20123;-81
2021/01/08 09:00:35;;;;;;;10.70;5.38;;;2.20;99.90;;;;;;5090160;28;20028;-81
2021/01/08 09:03:14;;;;;;;8.88;4.30;;;2.20;99.90;;;;;;5089802;28;20025;-81
2021/01/08 09:05:40;;;;;;;14.98;6.22;;;2.30;99.90;;;;;;5089704;28;20036;-82
2021/01/08 09:08:14;;;;;;;12.18;4.80;;;2.30;99.90;;;;;;5088034;28;20027;-83
2021/01/08 09:10:49;;;;;;;12.13;4.47;;;2.30;99.90;;;;;;5088440;28;20020;-81
2021/01/08 09:13:19;;;;;;;12.52;5.53;;;2.30;99.90;;;;;;5084965;28;20055;-81
2021/01/08 09:15:53;;;;;;;14.95;6.07;;;2.30;99.90;;;;;;5087314;28;20024;-82
2021/01/08 09:18:33;;;;;;;14.40;5.47;;;2.40;99.90;;;;;;5087144;28;20035;-82
2021/01/08 09:21:22;;;;;;;7.82;4.43;;;2.40;99.90;;;;;;5080413;28;20144;-82
2021/01/08 09:23:58;;;;;;;9.00;4.43;;;2.40;99.90;;;;;;5085118;28;20066;-82
2021/01/08 09:26:25;;;;;;;11.07;5.35;;;2.40;99.90;;;;;;5105462;28;20028;-82
2021/01/08 09:28:55;;;;;;;7.95;3.83;;;2.40;99.90;;;;;;5087542;28;20669;-81
2021/01/08 09:31:43;;;;;;;9.60;4.63;;;2.50;99.90;;;;;;5091590;28;20047;-82
2021/01/08 09:34:10;;;;;;;13.25;5.47;;;2.50;99.90;;;;;;5093701;28;20016;-83
2021/01/08 09:36:38;;;;;;;12.98;5.30;;;2.60;99.90;;;;;;5093620;28;20028;-83
2021/01/08 09:39:09;;;;;;;10.57;5.45;;;2.70;99.90;;;;;;5093347;28;20106;-83
2021/01/08 09:41:37;;;;;;;11.85;4.90;;;2.70;99.90;;;;;;5093454;28;20027;-84
2021/01/08 09:44:05;;;;;;;7.78;3.97;;;2.70;99.90;;;;;;5099614;28;20116;-83
2021/01/08 09:46:48;;;;;;;12.75;5.10;;;2.70;99.90;;;;;;5092889;28;20082;-82
2021/01/08 09:49:14;;;;;;;8.13;3.78;;;2.60;99.90;;;;;;5089490;28;20047;-83
2021/01/08 09:51:40;;;;;;;15.23;5.03;;;2.60;99.90;;;;;;5088916;28;20028;-82
2021/01/08 09:54:06;;;;;;;10.65;5.10;;;2.60;99.90;;;;;;5087842;28;20032;-83
2021/01/08 09:56:31;;;;;;;19.58;5.57;;;2.70;99.90;;;;;;5086882;28;20035;-80
2021/01/08 09:59:14;;;;;;;10.20;3.97;;;2.60;99.90;;;;;;5088269;28;20046;-81
2021/01/08 10:01:56;;;;;;;15.98;4.38;;;2.60;99.90;;;;;;5106284;28;20529;-81
2021/01/08 10:04:29;;;;;;;9.95;4.40;;;2.50;99.90;;;;;;5087995;28;20040;-82
2021/01/08 10:07:02;;;;;;;12.57;4.43;;;2.60;99.90;;;;;;5087713;28;20036;-82
2021/01/08 10:09:51;;;;;;;12.13;5.05;;;2.70;99.90;;;;;;5088439;28;20096;-81
2021/01/08 10:12:18;;;;;;;10.35;3.90;;;2.70;99.90;;;;;;5088633;28;20028;-82
2021/01/08 10:14:45;;;;;;;13.77;5.45;;;2.70;99.90;;;;;;5088465;28;20031;-81
2021/01/08 10:17:15;;;;;;;9.05;4.60;;;2.70;99.90;;;;;;5088676;28;20035;-81
2021/01/08 10:19:43;;;;;;;10.23;4.30;;;2.80;99.90;;;;;;5088305;28;20476;-81
2021/01/08 10:22:08;;;;;;;10.85;4.88;;;2.70;99.90;;;;;;5091204;28;20066;-81
2021/01/08 10:24:34;;;;;;;8.52;4.88;;;2.80;99.90;;;;;;5107697;28;20044;-81
2021/01/08 10:27:01;;;;;;;9.23;4.57;;;2.80;99.90;;;;;;5091864;28;20238;-82
2021/01/08 10:29:38;;;;;;;10.23;4.20;;;2.80;99.90;;;;;;5092009;28;20024;-82
2021/01/08 10:32:11;;;;;;;12.90;4.85;;;2.80;99.90;;;;;;5090372;28;20054;-83
2021/01/08 10:34:43;;;;;;;8.90;4.05;;;2.80;99.90;;;;;;5087714;28;20035;-81
2021/01/08 10:37:19;;;;;;;9.45;4.85;;;2.80;99.90;;;;;;5088154;28;20028;-83
2021/01/08 10:39:46;;;;;;;11.32;5.00;;;2.90;99.90;;;;;;5107155;28;20028;-82
2021/01/08 10:42:12;;;;;;;12.27;5.45;;;2.90;99.90;;;;;;5090314;28;20035;-82
2021/01/08 10:44:38;;;;;;;12.63;5.43;;;3.00;99.90;;;;;;5086697;28;20051;-82
2021/01/08 10:47:07;;;;;;;8.60;4.20;;;3.10;99.90;;;;;;5087969;28;20112;-82
2021/01/08 10:49:33;;;;;;;12.27;4.82;;;3.10;99.90;;;;;;5087092;28;20020;-81
2021/01/08 10:51:59;;;;;;;5.63;3.65;;;3.10;99.90;;;;;;5087862;28;20035;-83
2021/01/08 10:54:24;;;;;;;10.35;4.10;;;3.20;99.90;;;;;;5087379;28;20119;-81
2021/01/08 10:56:50;;;;;;;11.48;5.20;;;3.20;99.90;;;;;;5087005;28;20035;-82
2021/01/08 10:59:16;;;;;;;11.70;3.75;;;3.20;99.90;;;;;;5105779;28;20507;-82
2021/01/08 11:01:45;;;;;;;13.05;4.20;;;3.30;99.90;;;;;;5105444;28;20024;-81
2021/01/08 11:04:11;;;;;;;9.25;4.15;;;3.20;99.90;;;;;;5104291;28;20198;-82
2021/01/08 11:06:40;;;;;;;10.27;4.32;;;3.30;99.90;;;;;;5087219;28;20465;-84
2021/01/08 11:09:06;;;;;;;13.52;4.57;;;3.30;99.90;;;;;;5087255;28;20035;-83
2021/01/08 11:11:33;;;;;;;8.23;4.43;;;3.30;99.90;;;;;;5087182;28;20028;-84
2021/01/08 11:13:59;;;;;;;9.40;4.40;;;3.30;99.90;;;;;;5087457;28;20024;-83
2021/01/08 11:16:26;;;;;;;12.55;5.68;;;3.30;99.90;;;;;;5087436;28;20077;-82
2021/01/08 11:18:51;;;;;;;11.38;5.03;;;3.30;99.90;;;;;;5086922;28;20488;-83
2021/01/08 11:21:20;;;;;;;7.78;3.97;;;3.20;99.90;;;;;;5086911;28;20046;-82
2021/01/08 11:23:50;;;;;;;6.15;3.55;;;3.20;99.90;;;;;;5104631;28;20082;-81
2021/01/08 11:26:29;;;;;;;9.48;4.25;;;3.20;99.90;;;;;;5086891;28;20019;-82
2021/01/08 11:28:58;;;;;;;7.72;3.88;;;3.20;99.90;;;;;;5086802;28;20073;-82
2021/01/08 11:31:34;;;;;;;7.85;3.78;;;3.20;99.90;;;;;;5086665;28;20120;-84
2021/01/08 11:34:00;;;;;;;7.03;3.25;;;3.20;99.90;;;;;;5087140;28;20046;-86
2021/01/08 11:36:26;;;;;;;8.60;3.65;;;3.20;99.90;;;;;;5087044;28;20095;-82
2021/01/08 11:38:52;;;;;;;10.18;3.70;;;3.20;99.90;;;;;;5103584;28;20055;-81
2021/01/08 11:41:19;;;;;;;8.05;3.25;;;3.20;99.90;;;;;;5085842;28;20053;-84
2021/01/08 11:43:45;;;;;;;9.98;4.15;;;3.20;99.90;;;;;;5085432;28;20355;-87
2021/01/08 11:46:21;;;;;;;12.88;4.30;;;3.20;99.90;;;;;;5086316;28;20028;-86
2021/01/08 11:48:50;;;;;;;11.95;3.90;;;3.20;99.90;;;;;;5086489;28;20021;-85
2021/01/08 11:51:16;;;;;;;6.85;2.83;;;3.30;99.90;;;;;;5086057;28;20087;-87
2021/01/08 11:53:58;;;;;;;;;;;;;;;;;;;;;
2021/01/08 11:56:33;;;;;;;10.27;3.75;;;3.20;99.90;;;;;;5103981;28;20568;-87
2021/01/08 11:58:59;;;;;;;14.27;4.93;;;3.20;99.90;;;;;;5085837;28;20067;-87
2021/01/08 12:01:25;;;;;;;11.30;4.22;;;3.20;99.90;;;;;;5086276;28;20028;-84
2021/01/08 12:03:51;;;;;;;15.73;5.40;;;3.20;99.90;;;;;;5104147;28;20049;-83
2021/01/08 12:06:16;;;;;;;20.88;5.47;;;3.20;99.90;;;;;;5086146;28;20392;-84
2021/01/08 12:08:42;;;;;;;12.75;4.38;;;3.20;99.90;;;;;;5086711;28;20059;-84
2021/01/08 12:11:08;;;;;;;11.00;3.83;;;3.20;99.90;;;;;;5084966;28;20031;-83
2021/01/08 12:13:33;;;;;;;11.40;3.97;;;3.10;99.90;;;;;;5085904;28;20028;-85
2021/01/08 12:15:59;;;;;;;7.95;3.85;;;3.20;99.90;;;;;;5086514;28;20020;-84
2021/01/08 12:18:25;;;;;;;7.78;3.65;;;3.20;99.90;;;;;;5086713;28;20040;-85
2021/01/08 12:20:51;;;;;;;8.90;3.55;;;3.30;99.90;;;;;;5086094;28;20024;-84
2021/01/08 12:23:16;;;;;;;8.57;3.83;;;3.20;99.90;;;;;;5104728;28;20092;-85
2021/01/08 12:25:42;;;;;;;11.60;4.50;;;3.30;99.90;;;;;;5085895;28;20028;-85
2021/01/08 12:28:09;;;;;;;10.02;4.70;;;3.30;99.90;;;;;;5104149;28;20050;-83
2021/01/08 12:30:35;;;;;;;8.10;3.38;;;3.30;99.90;;;;;;5086327;28;20035;-84
2021/01/08 12:33:02;;;;;;;14.80;5.00;;;3.40;99.90;;;;;;5085843;28;20024;-84
2021/01/08 12:35:28;;;;;;;7.72;3.78;;;3.40;99.90;;;;;;5085968;28;20028;-81
2021/01/08 12:37:54;;;;;;;7.68;3.53;;;3.50;99.90;;;;;;5086255;28;20030;-85
2021/01/08 12:40:20;;;;;;;8.18;3.70;;;3.50;99.90;;;;;;5086362;28;20610;-86
2021/01/08 12:42:47;;;;;;;6.63;3.75;;;3.50;99.90;;;;;;5086272;28;20139;-84
2021/01/08 12:45:14;;;;;;;6.20;3.20;;;3.50;99.90;;;;;;5086119;28;20040;-85
2021/01/08 12:47:39;;;;;;;11.57;3.80;;;3.50;99.90;;;;;;5085617;28;20051;-84
2021/01/08 12:50:06;;;;;;;8.30;4.18;;;3.50;99.90;;;;;;5103935;28;20482;-84
2021/01/08 12:52:31;;;;;;;11.15;4.82;;;3.40;99.90;;;;;;5104512;28;20026;-85
2021/01/08 12:54:57;;;;;;;6.68;3.33;;;3.50;99.90;;;;;;5086085;28;20028;-84
2021/01/08 12:57:23;;;;;;;6.88;3.75;;;3.40;99.90;;;;;;5087196;28;20035;-85
2021/01/08 12:59:48;;;;;;;7.45;3.30;;;3.40;99.90;;;;;;5087559;28;20031;-85
2021/01/08 13:02:14;;;;;;;7.57;3.67;;;3.50;99.90;;;;;;5086974;28;20025;-83
2021/01/08 13:04:40;;;;;;;10.00;3.08;;;3.40;99.90;;;;;;5086006;28;20036;-83